Time;durP1;ratioP1;P1;durP2;ratioP2;P2;SDS_P1;SDS_P2;PMS_P1;PMS_P2;Temp;Humidity;BMP_temperature;BMP_pressure;BME280_temperature;BME280_humidity;BME280_pressure;Samples;Min_cycle;Max_cycle;Signal;HPM_P1;HPM_P2
2021/07/29 00:01:19;;;;;;;9.10;8.27;;;23.80;95.40;;;;;;5110625;27;20529;-68
2021/07/29 00:03:46;;;;;;;30.30;27.00;;;23.80;95.40;;;;;;5110184;28;20468;-68
2021/07/29 00:06:17;;;;;;;9.30;6.60;;;23.80;95.40;;;;;;5096513;28;20481;-68
2021/07/29 00:08:44;;;;;;;73.83;63.47;;;23.80;95.60;;;;;;5101593;28;20485;-68
2021/07/29 00:11:11;;;;;;;12.60;11.47;;;23.80;95.60;;;;;;5104560;28;20469;-68
2021/07/29 00:13:39;;;;;;;35.37;31.83;;;23.80;95.70;;;;;;5110651;28;20824;-68
2021/07/29 00:16:06;;;;;;;27.23;24.37;;;23.80;95.70;;;;;;5106702;28;20468;-68
2021/07/29 00:21:19;;;;;;;12.77;11.60;;;23.70;95.90;;;;;;5112235;28;20494;-67
2021/07/29 00:23:49;;;;;;;19.53;16.23;;;23.60;95.80;;;;;;5103489;28;20452;-67
2021/07/29 00:26:16;;;;;;;13.80;12.53;;;23.60;95.90;;;;;;5107202;27;20900;-68
2021/07/29 00:28:43;;;;;;;9.90;9.00;;;23.60;95.90;;;;;;5108624;27;20456;-67
2021/07/29 00:31:10;;;;;;;14.53;12.30;;;23.60;95.90;;;;;;5103759;28;20993;-68
2021/07/29 00:33:37;;;;;;;14.60;12.83;;;23.70;96.10;;;;;;5109335;28;20468;-68
2021/07/29 00:36:07;;;;;;;9.73;8.90;;;23.60;96.00;;;;;;5111797;28;20464;-68
2021/07/29 00:38:35;;;;;;;12.60;11.40;;;23.60;96.10;;;;;;5111761;27;20563;-68
2021/07/29 00:41:02;;;;;;;8.60;7.70;;;23.60;96.20;;;;;;5112113;28;20505;-68
2021/07/29 00:43:29;;;;;;;15.17;13.70;;;23.60;96.20;;;;;;5111157;28;20475;-68
2021/07/29 00:45:58;;;;;;;17.37;15.53;;;23.60;96.20;;;;;;5105192;27;20548;-68
2021/07/29 00:48:25;;;;;;;7.20;6.50;;;23.60;96.20;;;;;;5111123;27;20469;-69
2021/07/29 00:50:52;;;;;;;5.83;5.33;;;23.60;96.30;;;;;;5105145;28;20477;-68
2021/07/29 00:53:20;;;;;;;4.93;4.53;;;23.50;96.50;;;;;;5105266;28;20831;-68
2021/07/29 00:55:49;;;;;;;5.63;5.10;;;23.50;96.50;;;;;;5107644;28;20467;-68
2021/07/29 00:58:17;;;;;;;5.00;4.60;;;23.50;96.60;;;;;;5098491;28;20534;-68
2021/07/29 01:00:43;;;;;;;5.47;4.97;;;23.40;96.60;;;;;;5105822;28;20737;-68
2021/07/29 01:03:11;;;;;;;6.57;5.97;;;23.40;96.80;;;;;;5111083;28;20464;-68
2021/07/29 01:05:38;;;;;;;5.57;5.07;;;23.30;97.00;;;;;;5103067;27;20526;-68
2021/07/29 01:08:05;;;;;;;5.63;5.13;;;23.20;97.10;;;;;;5104077;28;20534;-68
2021/07/29 01:10:32;;;;;;;5.10;4.57;;;23.20;97.20;;;;;;5112515;28;20468;-69
2021/07/29 01:13:00;;;;;;;5.70;5.10;;;23.20;97.30;;;;;;5112834;28;20476;-69
2021/07/29 01:15:27;;;;;;;4.50;4.10;;;23.20;97.40;;;;;;5112410;27;20525;-69
2021/07/29 01:18:00;;;;;;;5.50;5.10;;;23.10;97.60;;;;;;5104323;28;20542;-69
2021/07/29 01:20:28;;;;;;;6.10;5.30;;;23.10;97.70;;;;;;5097405;28;21049;-68
2021/07/29 01:22:57;;;;;;;5.20;4.70;;;23.10;97.80;;;;;;5103084;28;20465;-68
2021/07/29 01:25:24;;;;;;;5.73;5.23;;;23.00;98.00;;;;;;5114933;28;20559;-67
2021/07/29 01:27:50;;;;;;;5.50;5.10;;;22.90;98.00;;;;;;5108052;28;20458;-67
2021/07/29 01:30:17;;;;;;;4.93;4.63;;;22.90;98.10;;;;;;5108323;27;20541;-67
2021/07/29 01:32:44;;;;;;;5.30;4.90;;;22.90;98.20;;;;;;5107069;27;20538;-67
2021/07/29 01:35:12;;;;;;;5.87;5.47;;;22.90;98.20;;;;;;5108449;27;20465;-68
2021/07/29 01:37:41;;;;;;;5.60;5.20;;;22.90;98.30;;;;;;5106663;27;20539;-67
2021/07/29 01:40:10;;;;;;;5.60;5.10;;;22.90;98.40;;;;;;5107750;27;20533;-68
2021/07/29 01:42:37;;;;;;;5.70;5.20;;;22.80;98.40;;;;;;5106272;27;20480;-68
2021/07/29 01:45:05;;;;;;;5.07;4.57;;;22.80;98.60;;;;;;5107328;27;21027;-68
2021/07/29 01:47:31;;;;;;;5.17;4.77;;;22.80;98.60;;;;;;5107180;27;20517;-69
2021/07/29 01:49:58;;;;;;;5.47;4.30;;;22.80;98.70;;;;;;5108131;28;20534;-68
2021/07/29 01:52:25;;;;;;;4.33;4.03;;;22.70;98.60;;;;;;5107714;27;21038;-68
2021/07/29 01:54:53;;;;;;;4.50;4.20;;;22.70;98.80;;;;;;5107701;27;20472;-68
2021/07/29 01:57:22;;;;;;;5.07;4.70;;;22.70;98.90;;;;;;5108243;28;20526;-69
2021/07/29 01:59:49;;;;;;;6.13;5.60;;;22.70;99.00;;;;;;5108215;27;20513;-69
2021/07/29 02:02:16;;;;;;;5.80;4.77;;;22.60;99.00;;;;;;5104710;28;20537;-68
2021/07/29 02:04:43;;;;;;;4.67;4.23;;;22.60;99.10;;;;;;5114655;28;20533;-68
2021/07/29 02:07:10;;;;;;;5.53;5.10;;;22.60;99.20;;;;;;5101028;28;20982;-67
2021/07/29 02:09:36;;;;;;;5.20;4.80;;;22.50;99.30;;;;;;5103850;28;20530;-68
2021/07/29 02:12:05;;;;;;;5.90;5.50;;;22.50;99.40;;;;;;5107894;28;20821;-68
2021/07/29 02:14:32;;;;;;;5.37;4.90;;;22.50;99.40;;;;;;5104973;28;20469;-68
2021/07/29 02:16:59;;;;;;;6.43;5.23;;;22.50;99.50;;;;;;5114790;27;20465;-68
2021/07/29 02:19:26;;;;;;;5.50;5.00;;;22.40;99.60;;;;;;5113783;28;20792;-68
2021/07/29 02:21:53;;;;;;;5.53;5.03;;;22.40;99.70;;;;;;5100233;28;20453;-68
2021/07/29 02:24:20;;;;;;;5.00;4.50;;;22.40;99.70;;;;;;5104218;28;21025;-68
2021/07/29 02:26:47;;;;;;;5.73;5.00;;;22.40;99.80;;;;;;5107238;28;20503;-68
2021/07/29 02:29:15;;;;;;;4.70;4.27;;;22.40;99.90;;;;;;5104736;27;20460;-68
2021/07/29 02:31:42;;;;;;;5.10;4.70;;;22.40;99.90;;;;;;5100585;28;20476;-68
2021/07/29 02:34:09;;;;;;;5.37;4.90;;;22.40;99.90;;;;;;5102911;28;20478;-68
2021/07/29 02:36:36;;;;;;;4.77;4.40;;;22.40;99.90;;;;;;5107150;28;20784;-68
2021/07/29 02:39:03;;;;;;;5.20;4.80;;;22.40;99.90;;;;;;5105330;27;20478;-68
2021/07/29 02:41:31;;;;;;;4.33;3.93;;;22.30;99.90;;;;;;5100441;28;20534;-68
2021/07/29 02:43:58;;;;;;;4.60;4.30;;;22.30;99.90;;;;;;5113083;28;20476;-68
2021/07/29 02:46:26;;;;;;;4.50;4.20;;;22.30;99.90;;;;;;5105505;27;20465;-69
2021/07/29 02:48:53;;;;;;;5.23;4.83;;;22.30;99.90;;;;;;5112992;28;20962;-68
2021/07/29 02:51:20;;;;;;;4.60;4.20;;;22.30;99.90;;;;;;5101351;27;20469;-69
2021/07/29 02:53:47;;;;;;;4.80;4.40;;;22.20;99.90;;;;;;5104150;27;20845;-68
2021/07/29 02:56:14;;;;;;;4.00;3.70;;;22.20;99.90;;;;;;5113958;28;20472;-68
2021/07/29 02:58:40;;;;;;;4.53;4.23;;;22.30;99.90;;;;;;5113378;28;20468;-68
2021/07/29 03:01:07;;;;;;;4.73;4.33;;;22.20;99.90;;;;;;5110282;28;20469;-69
2021/07/29 03:03:36;;;;;;;5.30;4.10;;;22.20;99.90;;;;;;5103364;28;20460;-69
2021/07/29 03:06:02;;;;;;;5.13;4.70;;;22.20;99.90;;;;;;5100002;28;20840;-68
2021/07/29 03:08:29;;;;;;;4.90;4.50;;;22.20;99.90;;;;;;5102863;27;20477;-68
2021/07/29 03:10:58;;;;;;;4.40;4.10;;;22.10;99.90;;;;;;5106063;28;20473;-68
2021/07/29 03:13:25;;;;;;;5.00;4.60;;;22.10;99.90;;;;;;5104025;28;20472;-68
2021/07/29 03:15:52;;;;;;;6.37;5.97;;;22.10;99.90;;;;;;5099468;28;20468;-69
2021/07/29 03:18:19;;;;;;;5.20;4.80;;;22.10;99.90;;;;;;5102237;28;20546;-68
2021/07/29 03:20:47;;;;;;;5.40;5.00;;;22.00;99.90;;;;;;5106408;28;20527;-68
2021/07/29 03:23:14;;;;;;;4.80;4.50;;;22.00;99.90;;;;;;5104665;27;20464;-68
2021/07/29 03:25:41;;;;;;;6.50;5.17;;;22.00;99.90;;;;;;5098563;28;20464;-68
2021/07/29 03:28:08;;;;;;;5.27;4.87;;;22.00;99.90;;;;;;5101911;28;20527;-67
2021/07/29 03:30:35;;;;;;;5.10;4.60;;;21.90;99.90;;;;;;5106613;28;20469;-67
2021/07/29 03:33:05;;;;;;;4.63;4.27;;;21.90;99.90;;;;;;5104974;28;21037;-67
2021/07/29 03:35:32;;;;;;;4.97;4.43;;;21.90;99.90;;;;;;5099827;27;20464;-68
2021/07/29 03:38:00;;;;;;;4.30;4.00;;;21.80;99.90;;;;;;5099765;28;20907;-67
2021/07/29 03:40:27;;;;;;;5.33;4.93;;;21.80;99.90;;;;;;5106377;28;20538;-68
2021/07/29 03:42:54;;;;;;;5.00;4.60;;;21.80;99.90;;;;;;5105786;28;20593;-68
2021/07/29 03:45:21;;;;;;;4.40;4.10;;;21.80;99.90;;;;;;5098360;28;20954;-68
2021/07/29 03:47:47;;;;;;;4.60;4.20;;;21.70;99.90;;;;;;5099970;28;20475;-69
2021/07/29 03:50:15;;;;;;;5.13;4.73;;;21.70;99.90;;;;;;5112947;28;20465;-68
2021/07/29 03:52:41;;;;;;;5.00;4.60;;;21.70;99.90;;;;;;5105358;27;20547;-69
2021/07/29 03:55:10;;;;;;;4.33;4.03;;;21.70;99.90;;;;;;5113187;27;20472;-69
2021/07/29 03:57:37;;;;;;;5.63;5.23;;;21.70;99.90;;;;;;5112918;28;20460;-68
2021/07/29 04:00:06;;;;;;;5.40;4.90;;;21.60;99.90;;;;;;5112650;28;21280;-68
2021/07/29 04:02:34;;;;;;;4.40;3.50;;;21.70;99.90;;;;;;5098271;28;20530;-68
2021/07/29 04:05:01;;;;;;;4.63;4.20;;;21.60;99.90;;;;;;5106700;27;20461;-69
2021/07/29 04:07:28;;;;;;;5.27;4.83;;;21.60;99.90;;;;;;5111470;27;20471;-68
2021/07/29 04:09:55;;;;;;;4.53;4.23;;;21.70;99.90;;;;;;5110630;27;21047;-68
2021/07/29 04:12:23;;;;;;;4.80;4.40;;;21.60;99.90;;;;;;5111185;27;20880;-68
2021/07/29 04:14:50;;;;;;;4.43;4.13;;;21.60;99.90;;;;;;5110771;27;20461;-68
2021/07/29 04:17:18;;;;;;;4.17;3.87;;;21.60;99.90;;;;;;5111371;27;20464;-68
2021/07/29 04:19:45;;;;;;;5.03;4.53;;;21.60;99.90;;;;;;5110586;27;20551;-68
2021/07/29 04:22:13;;;;;;;7.40;5.97;;;21.60;99.90;;;;;;5110926;27;21011;-68
2021/07/29 04:24:40;;;;;;;4.70;4.27;;;21.60;99.90;;;;;;5112980;27;20457;-68
2021/07/29 04:27:07;;;;;;;4.00;3.70;;;21.60;99.90;;;;;;5112638;27;21760;-69
2021/07/29 04:29:35;;;;;;;4.27;3.90;;;21.60;99.90;;;;;;5112793;27;21011;-69
2021/07/29 04:32:04;;;;;;;3.67;3.43;;;21.60;99.90;;;;;;5112425;27;21927;-68
2021/07/29 04:34:31;;;;;;;5.27;4.50;;;21.60;99.90;;;;;;5112993;27;20460;-68
2021/07/29 04:36:58;;;;;;;3.70;3.50;;;21.60;99.90;;;;;;5112378;27;20452;-69
2021/07/29 04:39:27;;;;;;;4.50;4.10;;;21.60;99.90;;;;;;5115990;27;20460;-69
2021/07/29 04:41:54;;;;;;;5.43;4.60;;;21.60;99.90;;;;;;5116379;27;20472;-69
2021/07/29 04:44:21;;;;;;;6.27;4.97;;;21.60;99.90;;;;;;5116701;27;20962;-69
2021/07/29 04:46:49;;;;;;;3.90;3.60;;;21.60;99.90;;;;;;5116285;27;20532;-69
2021/07/29 04:49:19;;;;;;;4.90;4.47;;;21.60;99.90;;;;;;5116246;27;20468;-68
2021/07/29 04:51:46;;;;;;;4.57;4.17;;;21.60;99.90;;;;;;5116314;27;20474;-69
2021/07/29 04:54:13;;;;;;;4.77;4.37;;;21.60;99.90;;;;;;5116558;27;20467;-68
2021/07/29 04:56:40;;;;;;;4.10;3.80;;;21.60;99.90;;;;;;5116389;27;20542;-69
2021/07/29 04:59:07;;;;;;;4.43;4.03;;;21.60;99.90;;;;;;5116013;27;20825;-68
2021/07/29 05:01:37;;;;;;;4.43;3.93;;;21.60;99.90;;;;;;5116369;27;20529;-68
2021/07/29 05:04:06;;;;;;;4.60;4.20;;;21.60;99.90;;;;;;5115800;27;20468;-67
2021/07/29 05:06:35;;;;;;;5.10;4.70;;;21.60;99.90;;;;;;5116470;27;20464;-68
2021/07/29 05:09:01;;;;;;;4.20;3.73;;;21.60;99.90;;;;;;5115808;27;20464;-68
2021/07/29 05:11:28;;;;;;;4.83;4.37;;;21.60;99.90;;;;;;5116034;27;21023;-68
2021/07/29 05:13:55;;;;;;;5.10;4.63;;;21.60;99.90;;;;;;5115747;27;20526;-68
2021/07/29 05:16:22;;;;;;;3.90;3.50;;;21.50;99.90;;;;;;5116071;27;20518;-68
2021/07/29 05:18:49;;;;;;;5.53;4.13;;;21.50;99.90;;;;;;5115514;27;20857;-68
2021/07/29 05:21:17;;;;;;;3.57;3.33;;;21.60;99.90;;;;;;5115928;27;20460;-69
2021/07/29 05:23:44;;;;;;;4.13;3.83;;;21.60;99.90;;;;;;5115798;27;20464;-69
2021/07/29 05:26:15;;;;;;;4.70;4.23;;;21.60;99.90;;;;;;5115493;27;20464;-69
2021/07/29 05:28:42;;;;;;;4.33;3.93;;;21.60;99.90;;;;;;5115903;27;20464;-68
2021/07/29 05:31:10;;;;;;;4.47;4.07;;;21.60;99.90;;;;;;5115424;27;20544;-69
2021/07/29 05:33:37;;;;;;;4.20;3.80;;;21.70;99.90;;;;;;5115764;27;20496;-69
2021/07/29 05:36:05;;;;;;;4.10;3.80;;;21.70;99.90;;;;;;5115391;27;21010;-69
2021/07/29 05:38:34;;;;;;;4.20;3.87;;;21.70;99.90;;;;;;5115373;27;20552;-69
2021/07/29 05:41:04;;;;;;;5.50;4.67;;;21.80;99.90;;;;;;5115016;27;20468;-69
2021/07/29 05:43:33;;;;;;;6.37;4.67;;;21.80;99.90;;;;;;5115687;27;20456;-69
2021/07/29 05:46:00;;;;;;;4.93;4.00;;;21.80;99.90;;;;;;5115098;27;20873;-68
2021/07/29 05:48:26;;;;;;;4.00;3.70;;;21.90;99.90;;;;;;5115011;27;20460;-69
2021/07/29 05:50:56;;;;;;;5.97;3.67;;;21.90;99.90;;;;;;5114914;27;20536;-69
2021/07/29 05:53:24;;;;;;;5.70;4.47;;;22.00;99.90;;;;;;5115243;27;20787;-69
2021/07/29 05:55:54;;;;;;;4.40;4.00;;;22.00;99.90;;;;;;5114881;27;20495;-69
2021/07/29 05:58:21;;;;;;;5.10;4.33;;;22.00;99.90;;;;;;5115208;27;20536;-69
2021/07/29 06:00:48;;;;;;;4.87;4.00;;;22.00;99.90;;;;;;5115216;27;20962;-69
2021/07/29 06:03:16;;;;;;;3.90;3.60;;;22.10;99.90;;;;;;5114457;27;20492;-69
2021/07/29 06:05:43;;;;;;;4.70;3.67;;;22.10;99.90;;;;;;5115159;27;20951;-69
2021/07/29 06:08:10;;;;;;;4.50;4.10;;;22.20;99.90;;;;;;5114487;27;20529;-68
2021/07/29 06:10:37;;;;;;;4.27;3.87;;;22.20;99.90;;;;;;5114773;27;20848;-69
2021/07/29 06:13:05;;;;;;;4.20;3.90;;;22.20;99.90;;;;;;5114769;27;20465;-69
2021/07/29 06:15:32;;;;;;;3.73;3.33;;;22.30;99.90;;;;;;5114813;27;20529;-69
2021/07/29 06:18:00;;;;;;;4.90;3.80;;;22.40;99.90;;;;;;5114388;27;20557;-69
2021/07/29 06:20:27;;;;;;;4.10;3.70;;;22.40;99.90;;;;;;5114873;27;20460;-69
2021/07/29 06:22:54;;;;;;;4.73;3.43;;;22.50;99.90;;;;;;5114069;27;20469;-69
2021/07/29 06:25:21;;;;;;;4.67;3.73;;;22.50;99.20;;;;;;5114720;27;20841;-69
2021/07/29 06:27:49;;;;;;;3.20;3.00;;;22.50;98.80;;;;;;5114680;27;20998;-67
2021/07/29 06:30:17;;;;;;;3.60;3.30;;;22.60;98.90;;;;;;5114102;27;20513;-69
2021/07/29 06:32:44;;;;;;;3.67;3.43;;;22.70;98.90;;;;;;5114676;27;20490;-69
2021/07/29 06:35:12;;;;;;;5.00;4.60;;;22.80;98.80;;;;;;5114130;27;20969;-69
2021/07/29 06:37:39;;;;;;;3.80;3.33;;;22.80;98.60;;;;;;5114248;27;20461;-70
2021/07/29 06:40:07;;;;;;;4.70;4.20;;;22.80;98.10;;;;;;5114084;27;20472;-69
2021/07/29 06:42:34;;;;;;;4.70;4.13;;;22.90;97.90;;;;;;5114623;27;20464;-69
2021/07/29 06:45:01;;;;;;;7.50;6.80;;;23.00;97.80;;;;;;5113732;27;20634;-67
2021/07/29 06:47:31;;;;;;;7.57;6.43;;;23.20;97.60;;;;;;5113689;27;20466;-68
2021/07/29 06:49:59;;;;;;;4.43;4.03;;;23.30;97.60;;;;;;5113766;27;20504;-68
2021/07/29 06:52:26;;;;;;;6.67;4.60;;;23.40;97.40;;;;;;5114029;27;20480;-68
2021/07/29 06:54:53;;;;;;;5.10;4.60;;;23.50;96.70;;;;;;5114195;27;20504;-68
2021/07/29 06:57:20;;;;;;;4.43;4.03;;;23.70;96.60;;;;;;5113862;27;20514;-68
2021/07/29 06:59:47;;;;;;;5.23;3.50;;;23.80;95.70;;;;;;5113998;27;20544;-69
2021/07/29 07:02:14;;;;;;;4.40;3.20;;;24.00;95.20;;;;;;5112783;27;20525;-69
2021/07/29 07:04:42;;;;;;;3.67;3.30;;;24.20;95.10;;;;;;5113785;27;21019;-69
2021/07/29 07:07:14;;;;;;;3.93;3.43;;;24.40;94.90;;;;;;5113258;27;20522;-69
2021/07/29 07:09:41;;;;;;;3.10;2.90;;;24.60;94.40;;;;;;5113809;27;20586;-69
2021/07/29 07:12:09;;;;;;;4.10;3.30;;;24.70;93.30;;;;;;5113453;27;20514;-69
2021/07/29 07:14:35;;;;;;;4.90;4.37;;;24.80;92.60;;;;;;5113783;27;20468;-69
2021/07/29 07:17:05;;;;;;;4.00;2.73;;;24.80;91.80;;;;;;5113366;27;20464;-69
2021/07/29 07:19:32;;;;;;;3.67;3.37;;;24.90;91.70;;;;;;5113777;27;20536;-69
2021/07/29 07:22:01;;;;;;;8.20;3.43;;;25.00;91.70;;;;;;5113181;27;20559;-69
2021/07/29 07:24:29;;;;;;;2.87;2.67;;;25.00;91.40;;;;;;5113716;27;20460;-69
2021/07/29 07:26:55;;;;;;;3.60;3.30;;;25.00;91.30;;;;;;5113745;27;20465;-69
2021/07/29 07:29:22;;;;;;;3.00;2.67;;;25.10;91.10;;;;;;5113268;27;20461;-69
2021/07/29 07:31:49;;;;;;;3.07;2.77;;;25.20;90.90;;;;;;5113505;27;20456;-69
2021/07/29 07:34:16;;;;;;;2.63;2.43;;;25.30;90.60;;;;;;5113050;27;20469;-69
2021/07/29 07:36:43;;;;;;;4.03;3.10;;;25.40;90.30;;;;;;5113598;27;20818;-69
2021/07/29 07:39:12;;;;;;;4.50;2.80;;;25.50;90.40;;;;;;5112971;27;20468;-69
2021/07/29 07:41:39;;;;;;;6.23;2.93;;;25.60;90.00;;;;;;5113309;27;20532;-69
2021/07/29 07:44:06;;;;;;;3.73;3.40;;;25.60;89.00;;;;;;5112753;27;20468;-69
2021/07/29 07:46:33;;;;;;;3.63;3.20;;;25.70;88.50;;;;;;5113416;27;20833;-69
2021/07/29 07:49:01;;;;;;;4.10;3.70;;;25.80;88.30;;;;;;5112777;27;20978;-69
2021/07/29 07:51:28;;;;;;;3.97;3.60;;;25.90;88.60;;;;;;5113121;27;20460;-69
2021/07/29 07:53:55;;;;;;;4.57;3.40;;;26.00;88.00;;;;;;5113090;27;20479;-69
2021/07/29 07:56:24;;;;;;;3.70;3.20;;;26.00;87.10;;;;;;5112686;27;20521;-70
2021/07/29 07:58:51;;;;;;;6.23;3.00;;;26.00;86.50;;;;;;5112961;27;20966;-69
2021/07/29 08:01:19;;;;;;;3.53;3.00;;;26.00;85.80;;;;;;5112835;27;20851;-70
2021/07/29 08:03:46;;;;;;;4.30;3.90;;;26.10;85.60;;;;;;5112887;27;20559;-69
2021/07/29 08:06:13;;;;;;;4.87;3.13;;;26.10;84.80;;;;;;5112536;27;20456;-69
2021/07/29 08:08:42;;;;;;;4.50;3.83;;;26.10;84.90;;;;;;5112944;27;20487;-69
2021/07/29 08:11:09;;;;;;;3.03;2.73;;;26.30;84.40;;;;;;5112031;27;20460;-69
2021/07/29 08:13:37;;;;;;;3.17;2.70;;;26.30;83.80;;;;;;5116726;27;20528;-69
2021/07/29 08:16:07;;;;;;;3.53;3.23;;;26.40;84.20;;;;;;5116929;27;20460;-69
2021/07/29 08:18:34;;;;;;;3.13;2.93;;;26.50;84.40;;;;;;5117175;27;20535;-69
2021/07/29 08:21:01;;;;;;;4.13;3.20;;;26.50;84.20;;;;;;5116619;27;20468;-70
2021/07/29 08:23:29;;;;;;;3.03;2.83;;;26.50;83.60;;;;;;5117222;27;20974;-69
2021/07/29 08:25:56;;;;;;;3.67;3.37;;;26.50;83.40;;;;;;5116909;27;20548;-69
2021/07/29 08:28:22;;;;;;;4.07;3.77;;;26.50;83.30;;;;;;5116363;27;20789;-69
2021/07/29 08:30:51;;;;;;;3.63;3.07;;;26.40;84.00;;;;;;5117138;27;20472;-68
2021/07/29 08:33:19;;;;;;;3.23;2.97;;;26.30;83.80;;;;;;5116436;27;20460;-68
2021/07/29 08:35:46;;;;;;;3.83;3.13;;;26.30;84.50;;;;;;5116776;27;20661;-69
2021/07/29 08:38:13;;;;;;;4.60;3.60;;;26.20;84.60;;;;;;5116278;27;20487;-68
2021/07/29 08:40:40;;;;;;;4.70;3.20;;;26.20;84.90;;;;;;5116583;27;21014;-69
2021/07/29 08:43:07;;;;;;;4.13;3.73;;;26.10;85.00;;;;;;5116378;27;20473;-68
2021/07/29 08:45:43;;;;;;;5.40;4.90;;;26.00;84.70;;;;;;5116234;27;20464;-69
2021/07/29 08:48:12;;;;;;;2.90;2.70;;;26.00;84.60;;;;;;5115871;27;20540;-70
2021/07/29 08:50:39;;;;;;;5.30;3.97;;;25.90;83.00;;;;;;5116530;27;20494;-70
2021/07/29 08:53:06;;;;;;;5.30;3.77;;;25.80;83.40;;;;;;5116089;27;20840;-71
2021/07/29 08:55:33;;;;;;;5.10;4.13;;;25.80;83.40;;;;;;5116536;27;20778;-69
2021/07/29 08:58:00;;;;;;;8.87;8.03;;;25.80;83.40;;;;;;5116426;27;20497;-69
2021/07/29 09:00:27;;;;;;;3.20;2.90;;;25.80;83.60;;;;;;5116000;27;20524;-70
2021/07/29 09:02:54;;;;;;;4.10;3.70;;;25.80;83.30;;;;;;5116181;27;20461;-68
2021/07/29 09:05:22;;;;;;;6.47;5.83;;;25.90;83.60;;;;;;5115863;27;20461;-68
2021/07/29 09:08:04;;;;;;;8.20;5.50;;;25.90;84.00;;;;;;5116135;27;20472;-68
2021/07/29 09:10:31;;;;;;;6.13;3.80;;;26.00;84.20;;;;;;5115711;27;21342;-68
2021/07/29 09:13:15;;;;;;;4.47;3.97;;;26.00;83.80;;;;;;5115999;27;21022;-68
2021/07/29 09:15:42;;;;;;;5.70;5.30;;;26.00;83.90;;;;;;5116573;27;20460;-68
2021/07/29 09:18:09;;;;;;;4.10;3.30;;;26.10;83.60;;;;;;5115712;27;20533;-69
2021/07/29 09:20:38;;;;;;;3.90;3.60;;;26.20;83.40;;;;;;5115998;27;20468;-69
2021/07/29 09:23:19;;;;;;;8.47;7.67;;;26.30;83.00;;;;;;5114993;27;20994;-69
2021/07/29 09:25:47;;;;;;;4.50;4.10;;;26.40;83.90;;;;;;5115760;27;20464;-69
2021/07/29 09:28:33;;;;;;;8.40;7.03;;;26.40;83.20;;;;;;5115637;27;20539;-69
2021/07/29 09:31:14;;;;;;;5.87;5.37;;;26.30;80.40;;;;;;5115345;27;20539;-69
2021/07/29 09:33:55;;;;;;;5.43;3.33;;;26.40;80.40;;;;;;5115753;27;20517;-69
2021/07/29 09:36:24;;;;;;;5.20;3.93;;;26.40;79.90;;;;;;5115469;27;21569;-69
2021/07/29 09:38:51;;;;;;;5.87;3.87;;;26.40;79.90;;;;;;5115402;27;20535;-69
2021/07/29 09:41:26;;;;;;;6.20;4.60;;;26.40;80.80;;;;;;5115339;27;20449;-69
2021/07/29 09:43:54;;;;;;;8.43;4.43;;;26.50;80.80;;;;;;5115247;27;20468;-69
2021/07/29 09:46:22;;;;;;;4.97;4.47;;;26.50;81.00;;;;;;5114863;27;20934;-69
2021/07/29 09:48:51;;;;;;;5.17;4.73;;;26.50;80.90;;;;;;5115397;27;20511;-69
2021/07/29 09:51:19;;;;;;;4.50;4.10;;;26.40;81.00;;;;;;5114927;27;20476;-69
2021/07/29 09:53:47;;;;;;;5.40;4.20;;;26.40;80.50;;;;;;5115156;27;20977;-69
2021/07/29 09:56:15;;;;;;;5.43;3.57;;;26.30;80.70;;;;;;5115114;27;20529;-69
2021/07/29 09:58:43;;;;;;;6.00;5.40;;;26.30;81.00;;;;;;5115212;27;21065;-69
2021/07/29 10:01:10;;;;;;;6.37;5.80;;;26.20;81.70;;;;;;5114636;27;20529;-69
2021/07/29 10:03:43;;;;;;;5.20;4.80;;;26.10;82.20;;;;;;5115219;27;20461;-69
2021/07/29 10:06:16;;;;;;;4.47;4.17;;;26.00;82.60;;;;;;5114784;27;21025;-70
2021/07/29 10:08:50;;;;;;;8.40;5.40;;;26.00;83.20;;;;;;5114666;27;20533;-69
2021/07/29 10:11:21;;;;;;;5.30;4.90;;;26.00;83.40;;;;;;5114453;27;20492;-69
2021/07/29 10:13:48;;;;;;;5.93;4.37;;;26.00;84.10;;;;;;5115212;27;20471;-69
2021/07/29 10:16:18;;;;;;;3.97;3.67;;;25.90;83.20;;;;;;5114452;27;20453;-69
2021/07/29 10:19:04;;;;;;;3.87;3.57;;;25.90;82.60;;;;;;5114828;27;20847;-69
2021/07/29 10:21:33;;;;;;;5.13;4.67;;;25.90;82.30;;;;;;5114479;27;21389;-69
2021/07/29 10:24:00;;;;;;;5.83;4.97;;;25.90;81.50;;;;;;5114670;27;20487;-69
2021/07/29 10:26:29;;;;;;;4.33;3.93;;;25.90;82.30;;;;;;5114304;27;20485;-69
2021/07/29 10:29:22;;;;;;;3.97;3.67;;;25.90;81.70;;;;;;5114710;27;20970;-69
2021/07/29 10:31:51;;;;;;;6.37;3.80;;;25.90;81.50;;;;;;5114528;27;20543;-69
2021/07/29 10:34:25;;;;;;;4.97;4.47;;;26.00;82.10;;;;;;5114543;27;20517;-69
2021/07/29 10:36:52;;;;;;;4.43;3.77;;;25.90;81.10;;;;;;5113171;27;20503;-69
2021/07/29 10:39:19;;;;;;;6.80;4.07;;;25.90;79.80;;;;;;5114498;27;20468;-70
2021/07/29 10:41:58;;;;;;;4.23;2.93;;;25.90;79.70;;;;;;5114268;27;20456;-70
2021/07/29 10:44:47;;;;;;;8.93;4.10;;;25.80;80.10;;;;;;5114624;27;20502;-70
2021/07/29 10:47:19;;;;;;;4.10;3.33;;;25.80;79.30;;;;;;5114125;27;20459;-70
2021/07/29 10:50:20;;;;;;;3.87;3.57;;;25.80;79.60;;;;;;5114132;27;21021;-70
2021/07/29 10:52:48;;;;;;;6.27;3.93;;;25.80;79.50;;;;;;5114556;27;20507;-69
2021/07/29 10:55:15;;;;;;;4.83;3.23;;;25.80;79.40;;;;;;5113856;27;20526;-70
2021/07/29 10:58:09;;;;;;;5.67;3.80;;;25.90;80.00;;;;;;5113918;27;20507;-69
2021/07/29 11:00:35;;;;;;;3.87;3.57;;;25.90;79.50;;;;;;5114019;27;20457;-69
2021/07/29 11:03:09;;;;;;;3.77;3.47;;;26.00;79.40;;;;;;5114078;27;20929;-70
2021/07/29 11:05:41;;;;;;;3.00;2.80;;;26.00;77.40;;;;;;5113596;27;20465;-70
2021/07/29 11:08:08;;;;;;;3.53;3.23;;;26.00;77.20;;;;;;5113679;27;20575;-69
2021/07/29 11:10:36;;;;;;;4.50;3.10;;;26.00;76.80;;;;;;5113557;27;20826;-69
2021/07/29 11:13:06;;;;;;;3.50;3.20;;;26.00;76.60;;;;;;5113906;27;20953;-69
2021/07/29 11:15:37;;;;;;;3.47;3.27;;;26.00;76.80;;;;;;5113307;27;20497;-69
2021/07/29 11:18:13;;;;;;;3.80;3.33;;;26.00;86.10;;;;;;5113291;27;20496;-69
2021/07/29 11:20:40;;;;;;;3.80;2.73;;;25.90;88.50;;;;;;5129831;27;20473;-69
2021/07/29 11:23:07;;;;;;;3.50;3.30;;;25.90;88.50;;;;;;5133649;27;20480;-70
2021/07/29 11:25:34;;;;;;;8.23;7.50;;;25.80;85.60;;;;;;5133294;27;20832;-70
2021/07/29 11:28:13;;;;;;;21.13;19.20;;;25.80;84.60;;;;;;5133565;27;20467;-69
2021/07/29 11:30:43;;;;;;;8.23;7.40;;;25.80;83.10;;;;;;5132556;27;20475;-70
2021/07/29 11:33:20;;;;;;;5.43;4.93;;;25.80;78.60;;;;;;5132155;27;20490;-70
2021/07/29 11:35:47;;;;;;;4.87;4.47;;;25.80;77.60;;;;;;5133088;27;20566;-69
2021/07/29 11:38:17;;;;;;;7.87;7.27;;;25.90;77.30;;;;;;5133429;27;20540;-70
2021/07/29 11:40:43;;;;;;;9.30;8.40;;;26.00;77.50;;;;;;5133313;27;20562;-70
2021/07/29 11:43:22;;;;;;;5.20;4.80;;;26.00;77.20;;;;;;5133940;27;20464;-70
2021/07/29 11:45:49;;;;;;;4.77;4.47;;;26.10;75.80;;;;;;5133348;27;20532;-70
2021/07/29 11:48:23;;;;;;;5.00;4.40;;;26.10;75.80;;;;;;5133619;27;20528;-70
2021/07/29 11:50:51;;;;;;;4.00;3.70;;;26.20;74.80;;;;;;5133545;27;21025;-70
2021/07/29 11:53:19;;;;;;;5.27;4.87;;;26.20;73.60;;;;;;5133605;27;20940;-70
2021/07/29 11:55:54;;;;;;;5.57;5.07;;;26.30;74.30;;;;;;5133414;27;20550;-70
2021/07/29 11:58:22;;;;;;;9.03;6.17;;;26.50;74.90;;;;;;5133614;27;20487;-70
2021/07/29 12:00:49;;;;;;;6.07;4.70;;;26.60;73.40;;;;;;5133278;27;20463;-70
2021/07/29 12:03:27;;;;;;;5.00;4.50;;;26.60;72.80;;;;;;5133466;27;20556;-70
2021/07/29 12:05:55;;;;;;;4.90;4.40;;;26.60;72.50;;;;;;5133382;27;20479;-69
2021/07/29 12:08:22;;;;;;;3.40;3.20;;;26.70;72.30;;;;;;5133444;27;20479;-69
2021/07/29 12:10:53;;;;;;;4.10;3.80;;;26.70;70.50;;;;;;5133165;27;20527;-69
2021/07/29 12:13:23;;;;;;;4.47;3.83;;;26.70;68.60;;;;;;5133691;27;20491;-70
2021/07/29 12:15:50;;;;;;;3.80;2.90;;;26.70;66.90;;;;;;5133177;27;20464;-70
2021/07/29 12:18:18;;;;;;;4.30;3.90;;;26.70;65.20;;;;;;5133323;27;20524;-70
2021/07/29 12:20:47;;;;;;;3.63;2.37;;;26.70;66.60;;;;;;5133194;27;20472;-71
2021/07/29 12:23:15;;;;;;;3.60;3.30;;;26.60;63.90;;;;;;5133522;27;20788;-70
2021/07/29 12:25:43;;;;;;;3.10;2.90;;;26.60;63.90;;;;;;5132949;27;20464;-70
2021/07/29 12:28:10;;;;;;;3.47;3.23;;;26.60;61.70;;;;;;5133557;27;20520;-70
2021/07/29 12:30:41;;;;;;;2.43;2.23;;;26.60;61.70;;;;;;5133459;27;20467;-70
2021/07/29 12:33:10;;;;;;;2.60;2.50;;;26.60;60.80;;;;;;5132985;27;21263;-71
2021/07/29 12:35:37;;;;;;;3.83;3.50;;;26.60;60.40;;;;;;5133367;27;20471;-71
2021/07/29 12:38:05;;;;;;;3.10;2.80;;;26.50;62.10;;;;;;5132880;27;20464;-70
2021/07/29 12:40:33;;;;;;;3.20;3.00;;;26.60;63.20;;;;;;5133313;27;20471;-70
2021/07/29 12:43:23;;;;;;;2.20;2.00;;;26.60;64.80;;;;;;5132776;27;20463;-70
2021/07/29 12:45:54;;;;;;;3.47;2.80;;;26.60;62.10;;;;;;5132498;27;20478;-70
2021/07/29 12:48:22;;;;;;;2.60;2.40;;;26.60;64.60;;;;;;5133479;27;20526;-71
2021/07/29 12:50:49;;;;;;;4.90;2.97;;;26.60;65.50;;;;;;5132768;27;20520;-71
2021/07/29 12:53:17;;;;;;;4.20;3.80;;;26.60;63.70;;;;;;5133043;27;20467;-70
2021/07/29 12:55:45;;;;;;;2.90;2.70;;;26.60;65.90;;;;;;5133332;27;21000;-70